Kendall, Washington
Current Conditions -  °F | °C
As of 6:00 AM on Saturday 25 Oct 2014 (Local Time) from CYXX Reporting Station
Broken Clouds Broken Clouds  
Wind Chill: 46°   Ceiling: 4000
Heat Index: 48°   Visibility: 15mi
Dew Point: 46°   Wind: 5mph
Humidity: 93%   Direction: 60°ENE
Pressure: 29.54"   Gusts: NA
Location:  48.8512°N, 121.903°W
Report Text: CYXX 251300Z 06004KT 15SM BKN040 BKN080 09/08 A2954 RMK SC5AC2 SLP005
Loading
Personal Weather Stations






























Interactive Weather Map
Tropical Storm Tracking
New forecast layout! Learn more

10-Day Weather Forecast

Advertisements
Track Severe Weather on mobile